Westwood Lake, Colorado
Current Conditions -  °F | °C
As of 6:58 PM on Saturday 25 Oct 2014 (Local Time) from KAFF Reporting Station
Clear Clear  
Wind Chill: 62°   Ceiling: Unl
Heat Index: 62°   Visibility: 10mi
Dew Point: 23°   Wind: 6mph
Humidity: 23%   Direction: 180°S
Pressure: 30.14"   Gusts: NA
Location:  39.0237°N, 105.099°W
Report Text: KAFF 260058Z AUTO 18005KT 10SM CLR 16/M05 A3014 RMK AO2 SLP156 T01641052
Loading
Personal Weather Stations






























Interactive Weather Map
Tropical Storm Tracking
New forecast layout! Learn more

10-Day Weather Forecast

Advertisements
Track Severe Weather on mobile